createdAt,value
2023-01-22T00:00:06.872Z,2.06
2023-01-22T00:02:40.622Z,1.88
2023-01-22T00:05:09.481Z,1.85
2023-01-22T00:07:38.659Z,2.12
2023-01-22T00:10:07.160Z,2.53
2023-01-22T00:12:36.250Z,2.11
2023-01-22T00:15:04.166Z,2.20
2023-01-22T00:17:32.015Z,1.78
2023-01-22T00:19:59.767Z,2.13
2023-01-22T00:22:27.588Z,1.97
2023-01-22T00:24:56.742Z,2.08
2023-01-22T00:27:24.609Z,1.84
2023-01-22T00:29:52.353Z,2.06
2023-01-22T00:32:20.217Z,1.88
2023-01-22T00:34:52.335Z,1.89
2023-01-22T00:37:20.410Z,1.95
2023-01-22T00:39:48.135Z,2.00
2023-01-22T00:42:17.235Z,2.24
2023-01-22T00:44:44.995Z,1.76
2023-01-22T00:47:13.016Z,2.17
2023-01-22T00:49:40.806Z,2.30
2023-01-22T00:52:08.578Z,2.23
2023-01-22T00:54:36.407Z,2.37
2023-01-22T00:57:04.393Z,2.20
2023-01-22T00:59:33.591Z,2.09
2023-01-22T01:02:01.399Z,2.17
2023-01-22T01:04:29.234Z,1.95
2023-01-22T01:06:57.037Z,2.00
2023-01-22T01:09:24.873Z,1.81
2023-01-22T01:11:53.253Z,2.20
2023-01-22T01:14:21.096Z,1.97
2023-01-22T01:16:51.235Z,1.72
2023-01-22T01:19:20.468Z,1.81
2023-01-22T01:21:51.718Z,1.86
2023-01-22T01:24:19.506Z,1.77
2023-01-22T01:26:47.262Z,1.88
2023-01-22T01:29:15.977Z,2.15
2023-01-22T01:31:43.800Z,2.19
2023-01-22T01:34:13.585Z,1.77
2023-01-22T01:36:48.866Z,2.07
2023-01-22T01:39:17.376Z,1.86
2023-01-22T01:41:45.756Z,1.52
2023-01-22T01:44:15.620Z,1.90
2023-01-22T01:46:47.838Z,1.83
2023-01-22T01:49:24.073Z,2.23
2023-01-22T01:51:53.692Z,1.59
2023-01-22T01:54:21.651Z,1.86
2023-01-22T01:56:52.570Z,1.62
2023-01-22T01:59:22.780Z,1.78
2023-01-22T02:01:55.685Z,1.86
2023-01-22T02:04:25.195Z,1.71
2023-01-22T02:06:54.815Z,1.39
2023-01-22T02:09:22.916Z,1.69
2023-01-22T02:11:52.505Z,1.41
2023-01-22T02:14:25.245Z,1.62
2023-01-22T02:17:01.293Z,1.55
2023-01-22T02:19:30.434Z,1.50
2023-01-22T02:21:59.616Z,1.55
2023-01-22T02:24:31.352Z,1.62
2023-01-22T02:26:59.358Z,1.60
2023-01-22T02:29:28.956Z,1.61
2023-01-22T02:31:56.866Z,1.39
2023-01-22T02:34:25.064Z,1.49
2023-01-22T02:36:54.602Z,1.58
2023-01-22T02:39:23.763Z,1.50
2023-01-22T02:41:52.371Z,3.86
2023-01-22T02:44:20.659Z,2.23
2023-01-22T02:46:48.416Z,2.00
2023-01-22T02:49:16.478Z,1.52
2023-01-22T02:51:44.231Z,1.59
2023-01-22T02:54:12.509Z,1.81
2023-01-22T02:56:41.819Z,1.70
2023-01-22T02:59:09.897Z,1.47
2023-01-22T03:01:38.234Z,1.53
2023-01-22T03:04:10.877Z,2.12
2023-01-22T03:06:40.582Z,1.96
2023-01-22T03:09:10.103Z,1.98
2023-01-22T03:11:42.110Z,1.69
2023-01-22T03:14:34.369Z,1.86
2023-01-22T03:17:19.848Z,1.85
2023-01-22T03:20:05.492Z,1.58
2023-01-22T03:22:33.403Z,1.82
2023-01-22T03:25:01.442Z,1.58
2023-01-22T03:27:32.525Z,1.57
2023-01-22T03:30:00.369Z,1.82
2023-01-22T03:32:32.509Z,1.67
2023-01-22T03:35:01.722Z,2.47
2023-01-22T03:37:39.238Z,1.70
2023-01-22T03:40:10.216Z,1.59
2023-01-22T03:42:41.565Z,1.26
2023-01-22T03:45:10.660Z,1.51
2023-01-22T03:47:38.918Z,1.65
2023-01-22T03:50:20.755Z,1.46
2023-01-22T03:52:48.545Z,1.43
2023-01-22T03:55:16.921Z,1.43
2023-01-22T03:57:46.326Z,1.52
2023-01-22T04:00:16.215Z,1.59
2023-01-22T04:02:44.319Z,1.33
2023-01-22T04:05:20.701Z,1.35
2023-01-22T04:07:50.586Z,1.29
2023-01-22T04:10:20.936Z,2.31
2023-01-22T04:12:50.974Z,1.54
2023-01-22T04:15:21.969Z,3.44
2023-01-22T04:17:51.058Z,4.00
2023-01-22T04:20:45.579Z,3.95
2023-01-22T04:23:39.928Z,4.28
2023-01-22T04:26:07.817Z,4.01
2023-01-22T04:28:36.951Z,3.90
2023-01-22T04:31:05.670Z,4.01
2023-01-22T04:33:56.834Z,4.11
2023-01-22T04:36:29.544Z,4.11
2023-01-22T04:38:57.571Z,4.23
2023-01-22T04:41:25.667Z,3.66
2023-01-22T04:43:54.954Z,3.53
2023-01-22T04:46:25.191Z,3.45
2023-01-22T04:48:53.698Z,3.10
2023-01-22T04:51:21.567Z,3.46
2023-01-22T04:53:49.448Z,3.98
2023-01-22T04:56:18.258Z,4.22
2023-01-22T04:58:46.457Z,3.84
2023-01-22T05:01:17.390Z,3.40
2023-01-22T05:03:46.028Z,3.62
2023-01-22T05:06:13.921Z,3.45
2023-01-22T05:08:41.671Z,3.89
2023-01-22T05:11:11.121Z,3.69
2023-01-22T05:13:52.884Z,3.46
2023-01-22T05:16:22.618Z,3.67
2023-01-22T05:18:50.518Z,4.24
2023-01-22T05:21:18.716Z,4.36
2023-01-22T05:23:47.584Z,3.42
2023-01-22T05:26:15.515Z,3.58
2023-01-22T05:28:52.977Z,3.81
2023-01-22T05:31:41.028Z,3.65
2023-01-22T05:34:16.658Z,4.40
2023-01-22T05:36:44.516Z,4.03
2023-01-22T05:39:17.082Z,4.30
2023-01-22T05:41:45.538Z,4.46
2023-01-22T05:44:15.055Z,4.13
2023-01-22T05:46:47.923Z,4.38
2023-01-22T05:49:21.697Z,4.14
2023-01-22T05:51:50.949Z,4.15
2023-01-22T05:54:19.269Z,4.48
2023-01-22T05:56:48.563Z,4.11
2023-01-22T05:59:16.589Z,4.11
2023-01-22T06:01:50.226Z,4.41
2023-01-22T06:04:18.000Z,4.27
2023-01-22T06:06:45.815Z,4.75
2023-01-22T06:09:14.212Z,4.49
2023-01-22T06:11:43.145Z,4.42
2023-01-22T06:14:12.606Z,4.39
2023-01-22T06:16:40.531Z,4.03
2023-01-22T06:19:14.107Z,3.63
2023-01-22T06:21:50.460Z,4.11
2023-01-22T06:24:19.081Z,4.02
2023-01-22T06:26:47.874Z,4.04
2023-01-22T06:29:16.356Z,3.91
2023-01-22T06:31:45.893Z,3.77
2023-01-22T06:34:19.200Z,3.37
2023-01-22T06:36:47.033Z,3.13
2023-01-22T06:39:15.979Z,3.27
2023-01-22T06:41:58.783Z,3.66
2023-01-22T06:44:26.564Z,3.74
2023-01-22T06:46:54.410Z,3.82
2023-01-22T06:49:27.577Z,3.57
2023-01-22T06:51:55.854Z,3.63
2023-01-22T06:54:24.281Z,3.48
2023-01-22T06:56:52.079Z,4.07
2023-01-22T06:59:22.893Z,3.76
2023-01-22T07:01:50.740Z,3.46
2023-01-22T07:04:18.531Z,4.28
2023-01-22T07:06:47.781Z,4.52
2023-01-22T07:09:15.561Z,4.52
2023-01-22T07:11:43.335Z,4.35
2023-01-22T07:14:11.070Z,4.23
2023-01-22T07:16:38.905Z,4.45
2023-01-22T07:19:06.726Z,4.70
2023-01-22T07:21:34.630Z,4.54
2023-01-22T07:24:03.834Z,4.61
2023-01-22T07:26:31.646Z,4.77
2023-01-22T07:28:59.433Z,4.47
2023-01-22T07:31:27.336Z,4.58
2023-01-22T07:33:55.255Z,4.66
2023-01-22T07:36:23.195Z,4.30
2023-01-22T07:38:50.950Z,2.30
2023-01-22T07:41:25.765Z,1.45
2023-01-22T07:43:56.063Z,1.65
2023-01-22T07:46:24.139Z,1.59
2023-01-22T07:48:51.991Z,1.46
2023-01-22T07:51:19.997Z,1.59
2023-01-22T07:53:47.825Z,4.44
2023-01-22T07:56:15.637Z,5.24
2023-01-22T07:58:44.767Z,2.21
2023-01-22T08:01:12.944Z,2.09
2023-01-22T08:03:40.820Z,2.03
2023-01-22T08:06:09.562Z,1.97
2023-01-22T08:08:37.589Z,4.42
2023-01-22T08:11:05.941Z,4.91
2023-01-22T08:13:33.746Z,5.53
2023-01-22T08:16:03.277Z,5.23
2023-01-22T08:18:31.308Z,2.14
2023-01-22T08:21:00.883Z,4.71
2023-01-22T08:23:28.824Z,5.14
2023-01-22T08:25:59.382Z,4.74
2023-01-22T08:28:27.742Z,3.24
2023-01-22T08:30:58.803Z,4.63
2023-01-22T08:33:28.715Z,2.49
2023-01-22T08:35:56.688Z,2.37
2023-01-22T08:38:24.450Z,2.49
2023-01-22T08:40:52.793Z,2.29
2023-01-22T08:43:20.730Z,2.52
2023-01-22T08:45:49.864Z,2.77
2023-01-22T08:48:17.794Z,2.65
2023-01-22T08:50:47.021Z,2.98
2023-01-22T08:53:14.855Z,2.91
2023-01-22T08:55:42.612Z,3.12
2023-01-22T08:58:10.484Z,3.36
2023-01-22T09:00:38.366Z,3.17
2023-01-22T09:03:06.542Z,3.08
2023-01-22T09:05:34.330Z,3.08
2023-01-22T09:08:03.495Z,2.80
2023-01-22T09:10:31.249Z,2.84
2023-01-22T09:13:00.413Z,2.75
2023-01-22T09:15:28.435Z,3.14
2023-01-22T09:17:56.394Z,3.16
2023-01-22T09:20:24.194Z,2.88
2023-01-22T09:22:51.984Z,3.06
2023-01-22T09:25:21.390Z,3.43
2023-01-22T09:27:49.165Z,3.15
2023-01-22T09:30:17.982Z,2.94
2023-01-22T09:32:45.919Z,2.98
2023-01-22T09:35:16.273Z,3.18
2023-01-22T09:37:44.365Z,3.56
2023-01-22T09:40:25.992Z,3.29
2023-01-22T09:43:05.128Z,3.75
2023-01-22T09:45:35.534Z,3.60
2023-01-22T09:48:08.891Z,4.12
2023-01-22T09:50:37.831Z,4.25
2023-01-22T09:53:10.571Z,3.78
2023-01-22T09:55:44.969Z,3.93
2023-01-22T09:58:16.662Z,3.96
2023-01-22T10:00:47.844Z,3.70
2023-01-22T10:03:22.768Z,3.84
2023-01-22T10:05:55.166Z,3.47
2023-01-22T10:08:24.544Z,3.73
2023-01-22T10:10:53.729Z,4.03
2023-01-22T10:13:23.367Z,3.96
2023-01-22T10:15:53.431Z,3.83
2023-01-22T10:18:34.443Z,3.52
2023-01-22T10:21:20.016Z,3.61
2023-01-22T10:23:50.208Z,3.85
2023-01-22T10:26:24.973Z,3.69
2023-01-22T10:28:56.223Z,3.67
2023-01-22T10:31:27.577Z,3.86
2023-01-22T10:33:59.528Z,4.06
2023-01-22T10:36:28.243Z,4.06
2023-01-22T10:39:06.964Z,3.99
2023-01-22T10:41:36.251Z,4.07
2023-01-22T10:44:21.325Z,4.00
2023-01-22T10:46:50.773Z,3.86
2023-01-22T10:49:22.347Z,3.95
2023-01-22T10:51:55.407Z,3.74
2023-01-22T10:54:29.763Z,3.95
2023-01-22T10:57:08.392Z,4.03
2023-01-22T10:59:36.594Z,3.93
2023-01-22T11:02:16.078Z,3.95
2023-01-22T11:04:43.986Z,3.95
2023-01-22T11:07:15.935Z,3.79
2023-01-22T11:09:48.731Z,3.84
2023-01-22T11:12:23.327Z,4.14
2023-01-22T11:15:04.750Z,4.05
2023-01-22T11:17:38.818Z,3.69
2023-01-22T11:20:17.872Z,4.02
2023-01-22T11:22:51.017Z,3.83
2023-01-22T11:25:18.898Z,3.93
2023-01-22T11:28:00.749Z,4.35
2023-01-22T11:30:49.748Z,4.41
2023-01-22T11:33:33.397Z,4.02
2023-01-22T11:36:09.449Z,4.08
2023-01-22T11:38:45.182Z,3.88
2023-01-22T11:41:38.252Z,3.55
2023-01-22T11:44:27.913Z,3.88
2023-01-22T11:47:07.767Z,3.57
2023-01-22T11:49:45.653Z,3.97
2023-01-22T11:52:26.653Z,4.01
2023-01-22T11:55:15.655Z,3.52
2023-01-22T11:57:47.993Z,3.93
2023-01-22T12:00:29.904Z,3.88
2023-01-22T12:03:25.249Z,3.98
2023-01-22T12:06:06.549Z,3.97
2023-01-22T12:08:48.375Z,4.00
2023-01-22T12:11:30.384Z,3.68
2023-01-22T12:14:21.701Z,4.03
2023-01-22T12:16:59.368Z,4.02
2023-01-22T12:19:53.910Z,3.53
2023-01-22T12:22:29.884Z,4.01
2023-01-22T12:25:03.351Z,3.76
2023-01-22T12:27:35.843Z,3.92
2023-01-22T12:30:15.113Z,3.69
2023-01-22T12:32:49.453Z,3.58
2023-01-22T12:35:19.230Z,3.84
2023-01-22T12:37:56.588Z,4.01
2023-01-22T12:40:42.439Z,4.15
2023-01-22T12:43:10.219Z,3.80
2023-01-22T12:45:45.666Z,4.21
2023-01-22T12:48:26.954Z,3.89
2023-01-22T12:50:57.215Z,3.36
2023-01-22T12:53:27.970Z,3.71
2023-01-22T12:56:01.281Z,3.76
2023-01-22T12:58:31.391Z,3.55
2023-01-22T13:01:20.745Z,3.94
2023-01-22T13:03:59.374Z,4.06
2023-01-22T13:06:33.193Z,3.88
2023-01-22T13:09:01.237Z,3.90
2023-01-22T13:11:31.925Z,4.02
2023-01-22T13:14:15.227Z,3.92
2023-01-22T13:16:52.419Z,4.04
2023-01-22T13:19:24.056Z,3.75
2023-01-22T13:21:52.795Z,3.99
2023-01-22T13:24:22.050Z,3.57
2023-01-22T13:26:57.087Z,3.90
2023-01-22T13:29:28.786Z,3.90
2023-01-22T13:31:58.514Z,3.80
2023-01-22T13:34:29.111Z,3.81
2023-01-22T13:36:57.555Z,3.75
2023-01-22T13:39:29.721Z,4.15
2023-01-22T13:41:59.436Z,4.03
2023-01-22T13:44:36.782Z,3.91
2023-01-22T13:47:05.246Z,3.87
2023-01-22T13:49:42.289Z,4.05
2023-01-22T13:52:15.857Z,3.78
2023-01-22T13:54:48.487Z,4.05
2023-01-22T13:57:22.399Z,4.16
2023-01-22T13:59:56.264Z,4.17
2023-01-22T14:02:24.892Z,3.99
2023-01-22T14:04:54.139Z,3.98
2023-01-22T14:07:26.946Z,3.76
2023-01-22T14:09:55.783Z,3.65
2023-01-22T14:12:25.874Z,4.15
2023-01-22T14:14:54.888Z,4.15
2023-01-22T14:17:28.702Z,4.20
2023-01-22T14:19:58.619Z,3.85
2023-01-22T14:22:26.965Z,3.75
2023-01-22T14:24:55.022Z,3.70
2023-01-22T14:27:23.928Z,3.42
2023-01-22T14:29:53.270Z,3.65
2023-01-22T14:32:21.385Z,3.75
2023-01-22T14:34:49.113Z,3.69
2023-01-22T14:37:19.191Z,3.72
2023-01-22T14:39:46.909Z,3.25
2023-01-22T14:42:14.727Z,3.49
2023-01-22T14:44:42.508Z,3.43
2023-01-22T14:47:10.286Z,3.43
2023-01-22T14:49:40.248Z,3.34
2023-01-22T14:52:07.997Z,3.46
2023-01-22T14:54:37.296Z,3.46
2023-01-22T14:57:05.223Z,3.56
2023-01-22T14:59:33.124Z,3.48
2023-01-22T15:02:00.968Z,3.53
2023-01-22T15:04:28.753Z,3.39
2023-01-22T15:06:56.563Z,3.54
2023-01-22T15:09:24.465Z,3.70
2023-01-22T15:11:53.596Z,3.47
2023-01-22T15:14:21.733Z,3.29
2023-01-22T15:16:49.532Z,3.53
2023-01-22T15:19:18.709Z,3.75
2023-01-22T15:21:46.625Z,3.70
2023-01-22T15:24:14.729Z,3.63
2023-01-22T15:26:43.406Z,3.33
2023-01-22T15:29:14.521Z,3.46
2023-01-22T15:31:42.960Z,3.60
2023-01-22T15:34:11.152Z,3.49
2023-01-22T15:36:40.501Z,3.67
2023-01-22T15:39:09.289Z,3.65
2023-01-22T15:41:37.894Z,3.59
2023-01-22T15:44:07.293Z,3.52
2023-01-22T15:46:37.933Z,3.60
2023-01-22T15:49:08.128Z,3.24
2023-01-22T15:51:36.964Z,3.29
2023-01-22T15:54:07.045Z,3.23
2023-01-22T15:56:38.436Z,3.44
2023-01-22T15:59:06.793Z,3.57
2023-01-22T16:01:36.112Z,3.70
2023-01-22T16:04:04.944Z,3.43
2023-01-22T16:06:34.421Z,3.45
2023-01-22T16:09:04.782Z,3.21
2023-01-22T16:11:32.902Z,3.36
2023-01-22T16:14:01.186Z,3.27
2023-01-22T16:16:31.806Z,3.19
2023-01-22T16:19:02.584Z,3.19
2023-01-22T16:21:30.502Z,3.29
2023-01-22T16:24:00.669Z,3.16
2023-01-22T16:26:30.528Z,3.17
2023-01-22T16:29:00.757Z,3.19
2023-01-22T16:31:31.922Z,3.26
2023-01-22T16:34:02.876Z,3.43
2023-01-22T16:36:32.443Z,3.35
2023-01-22T16:39:01.124Z,3.10
2023-01-22T16:41:30.510Z,3.11
2023-01-22T16:44:00.834Z,3.29
2023-01-22T16:46:30.323Z,3.38
2023-01-22T16:49:01.520Z,3.07
2023-01-22T16:51:42.828Z,3.41
2023-01-22T16:54:17.421Z,3.46
2023-01-22T16:56:45.300Z,3.39
2023-01-22T16:59:13.260Z,3.55
2023-01-22T17:01:41.806Z,3.77
2023-01-22T17:04:11.169Z,3.60
2023-01-22T17:06:41.250Z,3.23
2023-01-22T17:09:15.098Z,3.61
2023-01-22T17:11:43.558Z,3.56
2023-01-22T17:14:11.743Z,3.35
2023-01-22T17:16:39.742Z,3.37
2023-01-22T17:19:07.602Z,3.43
2023-01-22T17:21:36.895Z,3.45
2023-01-22T17:24:05.288Z,3.12
2023-01-22T17:26:33.169Z,2.96
2023-01-22T17:29:01.095Z,3.02
2023-01-22T17:31:31.253Z,3.20
2023-01-22T17:33:59.410Z,3.02
2023-01-22T17:36:28.839Z,3.00
2023-01-22T17:38:58.323Z,3.08
2023-01-22T17:41:27.008Z,3.30
2023-01-22T17:43:57.723Z,3.26
2023-01-22T17:46:27.361Z,3.42
2023-01-22T17:48:56.002Z,3.24
2023-01-22T17:51:26.507Z,3.13
2023-01-22T17:53:56.206Z,3.18
2023-01-22T17:56:27.503Z,3.48
2023-01-22T17:58:57.157Z,3.31
2023-01-22T18:01:28.652Z,3.37
2023-01-22T18:03:57.653Z,3.50
2023-01-22T18:06:25.577Z,3.26
2023-01-22T18:08:53.513Z,3.11
2023-01-22T18:11:24.076Z,3.28
2023-01-22T18:13:55.997Z,3.56
2023-01-22T18:16:25.238Z,3.89
2023-01-22T18:18:54.462Z,3.90
2023-01-22T18:21:23.182Z,4.05
2023-01-22T18:23:51.640Z,3.85
2023-01-22T18:26:22.896Z,3.86
2023-01-22T18:28:51.666Z,3.66
2023-01-22T18:31:22.757Z,3.31
2023-01-22T18:33:50.645Z,3.50
2023-01-22T18:36:20.878Z,3.47
2023-01-22T18:38:49.328Z,3.67
2023-01-22T18:41:19.633Z,3.44
2023-01-22T18:43:48.336Z,3.60
2023-01-22T18:46:17.075Z,3.71
2023-01-22T18:48:46.253Z,3.78
2023-01-22T18:51:14.457Z,3.79
2023-01-22T18:53:42.962Z,3.40
2023-01-22T18:56:12.945Z,3.55
2023-01-22T18:58:43.544Z,3.58
2023-01-22T19:01:14.102Z,3.95
2023-01-22T19:03:43.705Z,3.87
2023-01-22T19:06:16.171Z,3.92
2023-01-22T19:08:46.068Z,7.03
2023-01-22T19:11:14.875Z,6.55
2023-01-22T19:13:45.086Z,6.36
2023-01-22T19:16:15.343Z,5.78
2023-01-22T19:18:46.539Z,5.60
2023-01-22T19:21:18.019Z,5.80
2023-01-22T19:23:46.922Z,5.87
2023-01-22T19:26:17.772Z,6.32
2023-01-22T19:28:45.796Z,6.20
2023-01-22T19:31:16.613Z,5.80
2023-01-22T19:33:44.432Z,6.50
2023-01-22T19:36:12.253Z,6.29
2023-01-22T19:38:41.616Z,6.02
2023-01-22T19:41:10.102Z,6.37
2023-01-22T19:43:38.019Z,6.26
2023-01-22T19:46:08.038Z,6.28
2023-01-22T19:48:37.143Z,5.96
2023-01-22T19:51:07.196Z,6.00
2023-01-22T19:53:36.597Z,5.97
2023-01-22T19:56:07.000Z,6.11
2023-01-22T19:58:34.858Z,6.81
2023-01-22T20:01:09.293Z,6.84
2023-01-22T20:03:37.133Z,6.79
2023-01-22T20:06:06.742Z,6.52
2023-01-22T20:08:36.253Z,7.05
2023-01-22T20:11:07.674Z,6.17
2023-01-22T20:13:36.754Z,6.16
2023-01-22T20:16:05.410Z,5.94
2023-01-22T20:18:33.849Z,6.12
2023-01-22T20:21:03.957Z,6.47
2023-01-22T20:23:31.807Z,6.33
2023-01-22T20:26:02.062Z,6.26
2023-01-22T20:28:31.465Z,6.46
2023-01-22T20:31:01.295Z,6.13
2023-01-22T20:33:29.578Z,6.19
2023-01-22T20:35:58.012Z,6.36
2023-01-22T20:38:26.362Z,6.96
2023-01-22T20:40:54.165Z,6.67
2023-01-22T20:43:21.968Z,6.53
2023-01-22T20:46:01.279Z,6.43
2023-01-22T20:48:30.025Z,7.10
2023-01-22T20:50:58.268Z,6.67
2023-01-22T20:53:26.876Z,6.80
2023-01-22T20:56:02.959Z,6.43
2023-01-22T20:58:30.986Z,6.04
2023-01-22T21:01:06.108Z,5.84
2023-01-22T21:03:34.457Z,5.91
2023-01-22T21:06:04.111Z,5.95
2023-01-22T21:08:32.085Z,5.80
2023-01-22T21:11:01.519Z,6.05
2023-01-22T21:13:29.833Z,6.35
2023-01-22T21:15:58.094Z,5.81
2023-01-22T21:18:27.542Z,6.25
2023-01-22T21:20:55.340Z,5.93
2023-01-22T21:23:23.112Z,6.00
2023-01-22T21:25:51.563Z,5.88
2023-01-22T21:28:19.549Z,5.67
2023-01-22T21:30:47.619Z,5.83
2023-01-22T21:33:16.948Z,5.74
2023-01-22T21:35:50.650Z,5.73
2023-01-22T21:38:18.446Z,5.81
2023-01-22T21:40:46.467Z,6.13
2023-01-22T21:43:33.559Z,6.05
2023-01-22T21:46:18.763Z,5.85
2023-01-22T21:48:46.592Z,5.70
2023-01-22T21:51:16.247Z,5.63
2023-01-22T21:53:44.929Z,5.70
2023-01-22T21:56:12.952Z,5.63
2023-01-22T21:58:45.091Z,5.91
2023-01-22T22:01:16.221Z,5.83
2023-01-22T22:03:44.355Z,5.48
2023-01-22T22:06:13.273Z,5.52
2023-01-22T22:08:44.308Z,5.75
2023-01-22T22:11:13.751Z,6.01
2023-01-22T22:13:41.953Z,5.94
2023-01-22T22:16:11.364Z,5.74
2023-01-22T22:18:39.486Z,5.82
2023-01-22T22:21:09.473Z,5.70
2023-01-22T22:23:38.013Z,6.41
2023-01-22T22:26:08.796Z,5.71
2023-01-22T22:28:36.807Z,5.48
2023-01-22T22:31:06.080Z,6.32
2023-01-22T22:33:33.872Z,5.73
2023-01-22T22:36:02.077Z,6.33
2023-01-22T22:38:30.020Z,6.12
2023-01-22T22:41:02.895Z,6.34
2023-01-22T22:43:36.568Z,5.76
2023-01-22T22:46:06.414Z,5.86
2023-01-22T22:48:35.047Z,6.49
2023-01-22T22:51:10.782Z,6.27
2023-01-22T22:53:38.601Z,6.12
2023-01-22T22:56:08.150Z,5.76
2023-01-22T22:58:37.864Z,6.06
2023-01-22T23:01:09.563Z,6.07
2023-01-22T23:03:38.465Z,6.49
2023-01-22T23:06:10.402Z,6.80
2023-01-22T23:08:38.818Z,6.68
2023-01-22T23:11:08.431Z,6.17
2023-01-22T23:13:38.404Z,6.30
2023-01-22T23:16:08.593Z,5.95
2023-01-22T23:18:36.954Z,6.36
2023-01-22T23:21:06.112Z,6.51
2023-01-22T23:23:34.389Z,6.43
2023-01-22T23:26:02.765Z,6.24
2023-01-22T23:28:30.543Z,6.21
2023-01-22T23:31:05.587Z,6.42
2023-01-22T23:33:33.598Z,6.34
2023-01-22T23:36:02.109Z,6.60
2023-01-22T23:38:29.952Z,6.50
2023-01-22T23:40:58.168Z,6.83
2023-01-22T23:43:25.990Z,6.28
2023-01-22T23:45:53.752Z,6.65
2023-01-22T23:48:23.331Z,6.62
2023-01-22T23:50:53.790Z,6.39
2023-01-22T23:53:22.777Z,6.27
2023-01-22T23:55:50.626Z,6.25
2023-01-22T23:58:18.406Z,6.25
